Time;durP1;ratioP1;P1;durP2;ratioP2;P2;SDS_P1;SDS_P2;PMS_P1;PMS_P2;Temp;Humidity;BMP_temperature;BMP_pressure;BME280_temperature;BME280_humidity;BME280_pressure;Samples;Min_cycle;Max_cycle;Signal;HPM_P1;HPM_P2
2024/01/30 00:01:21;;;;;;;12.70;7.73;;;1.10;92.10;;;;;;5090551;28;20536;-75
2024/01/30 00:03:48;;;;;;;13.13;7.80;;;1.10;92.00;;;;;;5086684;28;20196;-76
2024/01/30 00:06:15;;;;;;;15.07;8.57;;;1.00;92.20;;;;;;5090276;28;20221;-77
2024/01/30 00:08:42;;;;;;;12.97;8.17;;;1.00;92.50;;;;;;5088470;28;20212;-77
2024/01/30 00:11:10;;;;;;;14.40;7.60;;;0.90;92.70;;;;;;5089211;28;20301;-77
2024/01/30 00:13:37;;;;;;;12.47;7.10;;;0.80;93.00;;;;;;5087032;28;20194;-76
2024/01/30 00:16:04;;;;;;;14.77;7.70;;;0.80;93.20;;;;;;5085154;28;20203;-76
2024/01/30 00:18:31;;;;;;;14.77;7.20;;;0.90;92.90;;;;;;5085126;28;20196;-76
2024/01/30 00:20:58;;;;;;;10.37;6.53;;;0.90;92.80;;;;;;5087910;28;20247;-75
2024/01/30 00:23:24;;;;;;;10.40;6.57;;;0.90;92.80;;;;;;5089720;28;20193;-76
2024/01/30 00:25:51;;;;;;;9.80;6.23;;;1.00;92.90;;;;;;5089667;28;20205;-77
2024/01/30 00:28:25;;;;;;;9.63;5.97;;;1.10;92.70;;;;;;5086285;28;20220;-76
2024/01/30 00:30:52;;;;;;;9.40;6.00;;;1.10;92.30;;;;;;5084500;28;20201;-77
2024/01/30 00:33:19;;;;;;;9.53;5.60;;;1.00;92.20;;;;;;5084230;28;20193;-76
2024/01/30 00:35:50;;;;;;;10.03;5.73;;;0.90;92.40;;;;;;5083860;28;20208;-76
2024/01/30 00:38:17;;;;;;;10.57;5.40;;;0.80;92.50;;;;;;5085937;28;20197;-76
2024/01/30 00:40:44;;;;;;;10.13;5.43;;;0.80;92.70;;;;;;5083701;28;20586;-76
2024/01/30 00:45:53;;;;;;;10.90;5.63;;;0.70;92.80;;;;;;5088897;28;20200;-76
2024/01/30 00:48:20;;;;;;;10.97;5.83;;;0.80;92.80;;;;;;5091530;28;20195;-76
2024/01/30 00:50:47;;;;;;;10.10;6.07;;;0.80;92.70;;;;;;5085796;28;20192;-76
2024/01/30 00:53:14;;;;;;;8.00;5.37;;;0.80;92.80;;;;;;5080975;28;20564;-76
2024/01/30 00:55:40;;;;;;;10.80;5.90;;;0.70;92.80;;;;;;5085449;28;20549;-76
2024/01/30 00:58:07;;;;;;;9.37;6.03;;;0.80;92.90;;;;;;5084720;28;20216;-76
2024/01/30 01:00:34;;;;;;;9.17;5.90;;;0.70;93.00;;;;;;5087127;28;20209;-77
2024/01/30 01:03:02;;;;;;;9.30;6.30;;;0.70;93.10;;;;;;5083596;28;20203;-76
2024/01/30 01:05:29;;;;;;;9.90;6.37;;;0.60;93.30;;;;;;5081845;28;20656;-76
2024/01/30 01:07:56;;;;;;;8.33;5.50;;;0.60;93.60;;;;;;5070076;28;20197;-75
2024/01/30 01:10:23;;;;;;;12.43;6.10;;;0.60;93.60;;;;;;5092730;28;20220;-76
2024/01/30 01:12:49;;;;;;;9.23;5.80;;;0.70;93.50;;;;;;5085190;28;20193;-76
2024/01/30 01:15:16;;;;;;;12.60;6.00;;;0.70;93.40;;;;;;5086649;28;20192;-76
2024/01/30 01:17:43;;;;;;;10.67;6.27;;;0.80;93.20;;;;;;5067403;28;20213;-76
2024/01/30 01:20:12;;;;;;;9.40;5.83;;;0.80;93.20;;;;;;5087992;28;20200;-75
2024/01/30 01:22:38;;;;;;;12.27;6.67;;;0.80;93.20;;;;;;5081898;28;20193;-75
2024/01/30 01:25:06;;;;;;;10.43;6.30;;;0.90;93.00;;;;;;5085938;28;20335;-76
2024/01/30 01:27:34;;;;;;;12.23;5.80;;;0.80;93.20;;;;;;5084179;28;20203;-76
2024/01/30 01:30:01;;;;;;;12.53;6.30;;;0.80;93.20;;;;;;5086058;28;20215;-76
2024/01/30 01:32:33;;;;;;;11.03;6.43;;;0.80;93.10;;;;;;5082768;28;20197;-76
2024/01/30 01:35:00;;;;;;;8.23;5.77;;;0.80;92.90;;;;;;5082526;28;20196;-75
2024/01/30 01:37:29;;;;;;;8.40;5.63;;;0.90;92.90;;;;;;5083029;28;20189;-76
2024/01/30 01:39:55;;;;;;;9.63;6.10;;;0.90;92.80;;;;;;5084777;28;20290;-76
2024/01/30 01:42:24;;;;;;;8.53;5.77;;;0.90;92.60;;;;;;5084155;28;20203;-76
2024/01/30 01:44:51;;;;;;;11.63;6.07;;;0.90;92.50;;;;;;5078842;28;20638;-76
2024/01/30 01:47:18;;;;;;;9.50;5.33;;;0.90;92.50;;;;;;5084824;28;20250;-75
2024/01/30 01:49:45;;;;;;;11.60;5.73;;;0.80;92.60;;;;;;5085705;28;20227;-76
2024/01/30 01:52:12;;;;;;;9.53;5.97;;;0.70;92.90;;;;;;5086605;28;20590;-76
2024/01/30 01:54:40;;;;;;;9.13;5.77;;;0.70;92.90;;;;;;5089582;28;20192;-75
2024/01/30 01:57:07;;;;;;;9.67;5.63;;;0.70;92.80;;;;;;5083684;28;20591;-76
2024/01/30 01:59:34;;;;;;;8.37;5.90;;;0.80;92.80;;;;;;5086334;28;20578;-75
2024/01/30 02:02:05;;;;;;;8.93;5.90;;;0.70;92.60;;;;;;5089219;28;20216;-75
2024/01/30 02:04:32;;;;;;;11.30;6.20;;;0.60;92.90;;;;;;5088302;28;20189;-75
2024/01/30 02:06:59;;;;;;;11.30;6.10;;;0.60;93.00;;;;;;5086816;28;20200;-76
2024/01/30 02:09:26;;;;;;;9.03;5.53;;;0.60;93.20;;;;;;5084434;28;20227;-76
2024/01/30 02:11:55;;;;;;;13.83;5.70;;;0.50;93.30;;;;;;5082364;28;20197;-76
2024/01/30 02:14:22;;;;;;;7.23;4.87;;;0.50;93.30;;;;;;5078339;28;20189;-76
2024/01/30 02:16:49;;;;;;;9.43;5.60;;;0.60;93.50;;;;;;5085285;28;20298;-76
2024/01/30 02:19:19;;;;;;;8.63;5.17;;;0.50;93.20;;;;;;5084567;28;20197;-76
2024/01/30 02:21:48;;;;;;;8.70;5.07;;;0.50;93.20;;;;;;5081179;28;20192;-76
2024/01/30 02:24:14;;;;;;;8.23;5.20;;;0.50;93.10;;;;;;5063687;28;20201;-76
2024/01/30 02:26:41;;;;;;;9.13;5.23;;;0.60;93.10;;;;;;5074682;28;20697;-77
2024/01/30 02:29:08;;;;;;;7.20;4.97;;;0.60;93.10;;;;;;5085725;28;20221;-76
2024/01/30 02:31:35;;;;;;;9.53;5.07;;;0.60;92.80;;;;;;5082544;28;20204;-75
2024/01/30 02:34:01;;;;;;;9.60;5.47;;;0.70;92.70;;;;;;5086238;28;20200;-76
2024/01/30 02:36:28;;;;;;;9.43;5.33;;;0.70;92.60;;;;;;5088620;28;20203;-76
2024/01/30 02:38:56;;;;;;;10.27;6.33;;;0.50;92.70;;;;;;5080640;28;20201;-76
2024/01/30 02:41:23;;;;;;;12.13;7.00;;;0.60;92.70;;;;;;5081874;28;20196;-75
2024/01/30 02:43:50;;;;;;;9.03;5.50;;;0.50;92.80;;;;;;5085789;28;20208;-76
2024/01/30 02:46:17;;;;;;;7.67;4.93;;;0.60;92.60;;;;;;5085256;28;20653;-74
2024/01/30 02:48:43;;;;;;;10.27;5.70;;;0.50;92.50;;;;;;5077810;28;20572;-75
2024/01/30 02:51:10;;;;;;;9.03;4.70;;;0.30;92.70;;;;;;5088329;28;20197;-75
2024/01/30 02:53:37;;;;;;;9.97;5.20;;;0.30;93.10;;;;;;5082126;28;20221;-75
2024/01/30 02:56:09;;;;;;;9.83;5.33;;;0.40;93.00;;;;;;5087900;28;20791;-75
2024/01/30 02:58:36;;;;;;;7.83;5.20;;;0.40;93.00;;;;;;5086726;28;20202;-74
2024/01/30 03:01:03;;;;;;;7.23;5.17;;;0.30;93.20;;;;;;5082774;28;20233;-74
2024/01/30 03:03:29;;;;;;;8.07;5.13;;;0.30;93.10;;;;;;5083488;28;20189;-75
2024/01/30 03:05:55;;;;;;;9.67;4.80;;;0.20;93.10;;;;;;5079265;28;20231;-75
2024/01/30 03:08:22;;;;;;;7.53;4.90;;;0.20;93.40;;;;;;5081627;28;20196;-75
2024/01/30 03:10:49;;;;;;;9.53;4.57;;;0.10;93.20;;;;;;5086180;28;20286;-75
2024/01/30 03:13:18;;;;;;;6.63;4.10;;;0.20;93.60;;;;;;5082798;28;20204;-75
2024/01/30 03:15:44;;;;;;;7.77;4.33;;;0.10;93.50;;;;;;5083027;28;20193;-75
2024/01/30 03:18:11;;;;;;;6.17;4.10;;;0.10;93.70;;;;;;5085219;28;20632;-75
2024/01/30 03:20:38;;;;;;;9.00;4.63;;;0.00;93.50;;;;;;5082303;28;20432;-75
2024/01/30 03:23:05;;;;;;;6.73;4.13;;;0.10;93.80;;;;;;5087907;28;20192;-75
2024/01/30 03:25:32;;;;;;;5.20;3.93;;;0.00;93.70;;;;;;5081439;28;20285;-75
2024/01/30 03:27:59;;;;;;;6.37;4.00;;;0.00;94.00;;;;;;5088443;28;20199;-75
2024/01/30 03:30:27;;;;;;;5.93;4.10;;;-0.10;94.00;;;;;;5083223;28;20291;-75
2024/01/30 03:32:53;;;;;;;6.93;4.73;;;-0.10;94.00;;;;;;5086819;28;20211;-76
2024/01/30 03:35:21;;;;;;;6.30;4.60;;;-0.20;94.00;;;;;;5067885;28;20203;-75
2024/01/30 03:37:47;;;;;;;5.23;4.10;;;-0.20;94.00;;;;;;5085106;28;20196;-75
2024/01/30 03:40:15;;;;;;;5.37;4.00;;;-0.10;94.30;;;;;;5082828;28;20880;-76
2024/01/30 03:42:41;;;;;;;6.63;3.90;;;0.10;94.10;;;;;;5066155;28;20692;-75
2024/01/30 03:45:09;;;;;;;6.60;4.77;;;0.00;94.00;;;;;;5081843;28;20207;-77
2024/01/30 03:47:37;;;;;;;6.90;4.23;;;0.10;94.00;;;;;;5081982;28;20192;-75
2024/01/30 03:50:05;;;;;;;6.03;3.80;;;0.20;93.90;;;;;;5087828;28;20211;-75
2024/01/30 03:52:32;;;;;;;6.20;4.07;;;0.20;93.60;;;;;;5085393;28;20237;-75
2024/01/30 03:54:59;;;;;;;6.93;4.60;;;0.30;93.50;;;;;;5082697;28;20576;-76
2024/01/30 03:57:26;;;;;;;6.73;4.27;;;0.30;93.40;;;;;;5084694;28;20216;-75
2024/01/30 03:59:53;;;;;;;6.63;4.37;;;0.30;93.40;;;;;;5077594;28;20204;-75
2024/01/30 04:02:20;;;;;;;7.47;4.23;;;0.30;93.30;;;;;;5083447;28;20645;-74
2024/01/30 04:04:48;;;;;;;6.47;4.67;;;0.40;93.20;;;;;;5085612;28;20761;-77
2024/01/30 04:07:14;;;;;;;8.80;4.07;;;0.40;92.90;;;;;;5087422;28;20584;-75
2024/01/30 04:09:41;;;;;;;6.07;4.23;;;0.30;92.60;;;;;;5089688;28;20220;-75
2024/01/30 04:12:08;;;;;;;6.23;4.23;;;0.30;92.80;;;;;;5087391;28;20199;-75
2024/01/30 04:14:35;;;;;;;6.70;4.00;;;0.10;93.00;;;;;;5087404;28;20196;-75
2024/01/30 04:17:02;;;;;;;5.90;4.27;;;0.00;93.50;;;;;;5090567;28;20196;-75
2024/01/30 04:19:28;;;;;;;6.13;3.90;;;-0.10;94.00;;;;;;5081786;28;20201;-77
2024/01/30 04:21:57;;;;;;;5.97;4.10;;;-0.20;94.00;;;;;;5081605;28;20197;-75
2024/01/30 04:24:23;;;;;;;6.57;4.17;;;-0.20;94.00;;;;;;5083425;28;20189;-76
2024/01/30 04:26:50;;;;;;;9.37;5.70;;;-0.30;94.10;;;;;;5070687;28;20211;-76
2024/01/30 04:29:17;;;;;;;6.60;4.37;;;-0.30;94.40;;;;;;5086546;28;20203;-76
2024/01/30 04:31:44;;;;;;;9.30;4.40;;;-0.30;94.50;;;;;;5090571;28;20254;-75
2024/01/30 04:34:10;;;;;;;7.63;4.53;;;-0.30;94.50;;;;;;5083039;28;20200;-75
2024/01/30 04:36:37;;;;;;;7.60;4.27;;;-0.30;94.60;;;;;;5088485;28;20211;-75
2024/01/30 04:39:05;;;;;;;5.90;4.07;;;-0.20;94.60;;;;;;5090080;28;20196;-75
2024/01/30 04:41:32;;;;;;;7.37;3.97;;;-0.10;94.40;;;;;;5086993;28;20663;-75
2024/01/30 04:43:59;;;;;;;8.13;4.70;;;-0.10;94.00;;;;;;5079204;28;20196;-78
2024/01/30 04:46:25;;;;;;;8.37;4.43;;;-0.10;94.00;;;;;;5084310;28;20279;-75
2024/01/30 04:48:59;;;;;;;5.43;3.70;;;-0.10;94.00;;;;;;5083071;28;20668;-75
2024/01/30 04:51:25;;;;;;;6.10;3.67;;;-0.10;94.30;;;;;;5087002;28;20590;-75
2024/01/30 04:53:52;;;;;;;5.50;3.93;;;0.00;94.00;;;;;;5084796;28;20572;-75
2024/01/30 04:56:20;;;;;;;6.23;4.10;;;0.00;94.00;;;;;;5082469;28;20223;-75
2024/01/30 04:58:47;;;;;;;4.90;3.77;;;0.00;94.00;;;;;;5083858;28;20211;-74
2024/01/30 05:01:16;;;;;;;8.00;4.07;;;0.10;94.30;;;;;;5083412;28;20200;-75
2024/01/30 05:03:43;;;;;;;5.40;3.63;;;0.00;94.00;;;;;;5085612;28;20193;-74
2024/01/30 05:06:09;;;;;;;6.37;3.77;;;0.10;94.30;;;;;;5083392;28;20321;-75
2024/01/30 05:08:36;;;;;;;4.53;3.50;;;0.10;93.70;;;;;;5083638;28;20208;-74
2024/01/30 05:11:03;;;;;;;4.63;3.60;;;0.10;93.70;;;;;;5086144;28;20281;-75
2024/01/30 05:13:31;;;;;;;4.67;3.37;;;0.10;93.50;;;;;;5083647;28;20197;-74
2024/01/30 05:16:03;;;;;;;6.00;3.37;;;0.10;93.50;;;;;;5082050;28;20204;-74
2024/01/30 05:18:30;;;;;;;5.33;3.33;;;0.10;93.60;;;;;;5088935;28;20207;-74
2024/01/30 05:20:57;;;;;;;4.53;3.30;;;0.10;93.50;;;;;;5086365;28;20212;-74
2024/01/30 05:23:24;;;;;;;7.87;3.40;;;0.10;93.50;;;;;;5085230;28;20208;-74
2024/01/30 05:25:51;;;;;;;5.20;3.53;;;0.10;93.30;;;;;;5084189;28;20197;-77
2024/01/30 05:28:16;;;;;;;4.73;3.40;;;0.10;93.20;;;;;;5083690;28;20249;-75
2024/01/30 05:30:57;;;;;;;5.13;3.30;;;0.00;93.30;;;;;;5083543;28;20217;-74
2024/01/30 05:33:24;;;;;;;5.87;3.23;;;-0.10;93.70;;;;;;5086437;28;20546;-75
2024/01/30 05:35:54;;;;;;;4.23;3.27;;;-0.20;94.00;;;;;;5083613;28;20200;-78
2024/01/30 05:38:21;;;;;;;4.83;2.90;;;-0.20;94.00;;;;;;5081889;28;20200;-74
2024/01/30 05:40:47;;;;;;;4.60;3.00;;;-0.30;94.20;;;;;;5076060;28;20226;-75
2024/01/30 05:45:56;;;;;;;5.03;3.20;;;-0.20;94.40;;;;;;5080781;28;20199;-76
2024/01/30 05:48:23;;;;;;;4.80;2.90;;;-0.20;94.00;;;;;;5079120;28;20213;-76
2024/01/30 05:50:50;;;;;;;4.70;2.53;;;0.00;94.00;;;;;;5086808;28;20264;-76
2024/01/30 05:53:17;;;;;;;6.40;3.40;;;-0.10;94.00;;;;;;5077022;28;20573;-76
2024/01/30 05:55:43;;;;;;;6.53;3.03;;;-0.10;94.00;;;;;;5084942;28;20204;-75
2024/01/30 05:58:10;;;;;;;4.80;3.50;;;-0.20;94.00;;;;;;5079388;28;20197;-75
2024/01/30 06:00:38;;;;;;;4.03;2.90;;;-0.20;94.20;;;;;;5085681;28;20573;-75
2024/01/30 06:03:07;;;;;;;5.23;3.10;;;-0.30;94.00;;;;;;5085943;28;20200;-77
2024/01/30 06:05:33;;;;;;;4.53;2.70;;;-0.30;94.00;;;;;;5080831;28;20212;-77
2024/01/30 06:08:00;;;;;;;6.20;2.80;;;-0.30;94.20;;;;;;5089190;28;20551;-78
2024/01/30 06:10:27;;;;;;;4.47;2.77;;;-0.30;94.00;;;;;;5081110;28;20224;-76
2024/01/30 06:12:54;;;;;;;3.03;2.20;;;-0.30;94.00;;;;;;5081210;28;20206;-75
2024/01/30 06:15:21;;;;;;;4.47;2.53;;;-0.30;94.10;;;;;;5085484;28;20200;-85
2024/01/30 06:17:48;;;;;;;4.57;2.80;;;-0.20;94.00;;;;;;5081603;28;20208;-75
2024/01/30 06:20:16;;;;;;;5.03;3.33;;;-0.20;94.00;;;;;;5084167;28;20231;-75
2024/01/30 06:22:44;;;;;;;4.77;2.37;;;-0.10;94.00;;;;;;5082185;28;20216;-75
2024/01/30 06:25:12;;;;;;;3.43;2.47;;;0.00;93.80;;;;;;5079574;28;20194;-75
2024/01/30 06:27:39;;;;;;;3.50;2.70;;;0.00;93.40;;;;;;5082661;28;20193;-75
2024/01/30 06:30:06;;;;;;;4.13;2.63;;;-0.10;93.60;;;;;;5084024;28;20213;-75
2024/01/30 06:32:34;;;;;;;4.67;3.00;;;-0.10;93.90;;;;;;5084075;28;20562;-76
2024/01/30 06:35:01;;;;;;;3.87;2.57;;;-0.20;93.60;;;;;;5083122;28;20253;-77
2024/01/30 06:37:29;;;;;;;4.37;3.07;;;-0.20;94.00;;;;;;5075661;28;20208;-77
2024/01/30 06:39:56;;;;;;;5.93;3.60;;;-0.20;94.00;;;;;;5082679;28;20196;-75
2024/01/30 06:42:22;;;;;;;6.43;4.90;;;-0.20;94.00;;;;;;5081048;28;20207;-75
2024/01/30 06:44:49;;;;;;;8.57;6.60;;;-0.30;94.00;;;;;;5088021;28;20204;-75
2024/01/30 06:47:16;;;;;;;8.20;6.07;;;-0.30;94.00;;;;;;5084096;28;20196;-75
2024/01/30 06:49:43;;;;;;;7.80;5.70;;;-0.30;94.00;;;;;;5091413;28;20203;-75
2024/01/30 06:52:10;;;;;;;5.67;3.33;;;-0.30;94.00;;;;;;5082322;28;20231;-75
2024/01/30 06:54:39;;;;;;;5.23;4.00;;;-0.30;94.00;;;;;;5080602;28;20197;-75
2024/01/30 06:57:08;;;;;;;4.13;2.90;;;-0.20;94.00;;;;;;5082047;28;20217;-76
2024/01/30 06:59:35;;;;;;;5.03;3.47;;;-0.30;94.00;;;;;;5075530;28;20236;-75
2024/01/30 07:02:02;;;;;;;7.33;5.00;;;-0.20;94.00;;;;;;5085177;28;20200;-75
2024/01/30 07:04:36;;;;;;;5.60;4.37;;;0.00;94.00;;;;;;5086001;28;20200;-79
2024/01/30 07:07:04;;;;;;;7.27;3.97;;;0.10;93.60;;;;;;5086076;28;20208;-75
2024/01/30 07:12:13;;;;;;;7.77;4.97;;;0.10;93.60;;;;;;5081405;28;20212;-75
2024/01/30 07:14:40;;;;;;;7.30;4.20;;;0.20;93.50;;;;;;5086106;28;20209;-75
2024/01/30 07:17:07;;;;;;;7.50;4.50;;;0.30;93.00;;;;;;5084743;28;20196;-76
2024/01/30 07:19:34;;;;;;;9.77;4.33;;;0.40;92.90;;;;;;5079902;28;20197;-74
2024/01/30 07:22:01;;;;;;;6.40;3.80;;;0.40;93.00;;;;;;5087320;28;20212;-75
2024/01/30 07:24:28;;;;;;;8.17;3.83;;;0.30;93.00;;;;;;5078893;28;20197;-74
2024/01/30 07:26:55;;;;;;;5.27;3.73;;;0.30;93.10;;;;;;5082470;28;20192;-75
2024/01/30 07:29:54;;;;;;;5.27;3.60;;;0.20;93.40;;;;;;5080084;28;20200;-74
2024/01/30 07:32:21;;;;;;;5.53;3.40;;;0.40;93.20;;;;;;5081415;28;20221;-75
2024/01/30 07:34:48;;;;;;;5.17;3.30;;;0.50;92.80;;;;;;5077401;28;20197;-75
2024/01/30 07:37:15;;;;;;;6.43;3.60;;;0.50;92.80;;;;;;5084462;28;20998;-75
2024/01/30 07:39:43;;;;;;;7.47;3.80;;;0.60;92.70;;;;;;5082362;28;20283;-74
2024/01/30 07:42:10;;;;;;;5.23;3.47;;;0.60;92.70;;;;;;5086404;28;20215;-75
2024/01/30 07:44:38;;;;;;;9.53;3.70;;;0.60;93.00;;;;;;5074807;28;20197;-75
2024/01/30 07:47:07;;;;;;;7.63;3.80;;;0.60;93.10;;;;;;5077462;28;20203;-76
2024/01/30 07:49:33;;;;;;;5.47;3.63;;;0.60;93.40;;;;;;5085781;28;20196;-77
2024/01/30 07:52:00;;;;;;;6.40;3.37;;;0.60;93.50;;;;;;5086974;28;20228;-77
2024/01/30 07:54:27;;;;;;;5.60;3.50;;;0.70;93.50;;;;;;5086326;28;20200;-75
2024/01/30 07:56:53;;;;;;;4.97;3.43;;;0.90;93.90;;;;;;5088041;28;20212;-76
2024/01/30 07:59:24;;;;;;;5.50;3.20;;;1.30;93.80;;;;;;5088908;28;20572;-75
2024/01/30 08:01:52;;;;;;;5.10;3.20;;;1.80;92.50;;;;;;5086471;28;20201;-75
2024/01/30 08:04:19;;;;;;;8.47;3.20;;;2.00;91.30;;;;;;5087801;28;20197;-80
2024/01/30 08:06:46;;;;;;;10.90;3.27;;;2.40;90.50;;;;;;5091134;28;20196;-77
2024/01/30 08:09:12;;;;;;;9.03;4.13;;;2.80;89.70;;;;;;5084834;28;20580;-79
2024/01/30 08:11:39;;;;;;;5.57;3.10;;;3.30;84.30;;;;;;5091208;28;20204;-79
2024/01/30 08:14:06;;;;;;;5.17;3.10;;;3.40;80.80;;;;;;5083197;28;20204;-79
2024/01/30 08:16:33;;;;;;;7.13;3.13;;;3.30;79.40;;;;;;5084590;28;20197;-76
2024/01/30 08:19:01;;;;;;;14.07;3.47;;;3.10;81.90;;;;;;5089524;28;20193;-80
2024/01/30 08:21:28;;;;;;;7.50;3.53;;;3.10;83.40;;;;;;5089830;28;20209;-78
2024/01/30 08:23:55;;;;;;;6.37;3.67;;;3.00;84.20;;;;;;5091442;28;20201;-80
2024/01/30 08:26:21;;;;;;;5.53;3.20;;;3.10;88.60;;;;;;5088231;28;20723;-79
2024/01/30 08:28:48;;;;;;;6.30;3.20;;;3.20;87.80;;;;;;5084188;28;20649;-78
2024/01/30 08:31:15;;;;;;;4.23;2.90;;;3.20;86.70;;;;;;5084160;28;20232;-79
2024/01/30 08:33:43;;;;;;;7.20;4.03;;;3.30;85.40;;;;;;5088048;28;20280;-78
2024/01/30 08:36:11;;;;;;;3.63;2.77;;;3.50;82.20;;;;;;5087433;28;20197;-80
2024/01/30 08:38:38;;;;;;;6.70;2.97;;;3.80;80.30;;;;;;5087281;28;20200;-80
2024/01/30 08:41:05;;;;;;;12.83;3.37;;;4.10;77.90;;;;;;5080684;28;20193;-82
2024/01/30 08:43:32;;;;;;;4.47;3.03;;;4.30;76.40;;;;;;5090212;28;20211;-81
2024/01/30 08:46:00;;;;;;;5.37;3.10;;;4.60;76.20;;;;;;5085801;28;20200;-81
2024/01/30 08:48:26;;;;;;;5.78;2.80;;;4.90;74.00;;;;;;5084162;28;20209;-80
2024/01/30 08:50:53;;;;;;;8.47;3.00;;;5.20;70.00;;;;;;5086443;28;20243;-81
2024/01/30 08:53:21;;;;;;;9.87;3.50;;;5.30;70.00;;;;;;5085309;28;20566;-79
2024/01/30 08:55:48;;;;;;;6.32;3.05;;;5.30;71.80;;;;;;5071510;28;20199;-81
2024/01/30 08:58:15;;;;;;;4.85;3.22;;;5.50;73.10;;;;;;5085979;28;20332;-80
2024/01/30 09:00:42;;;;;;;5.88;2.97;;;5.70;71.40;;;;;;5086038;28;20218;-80
2024/01/30 09:03:09;;;;;;;9.40;3.47;;;6.00;70.70;;;;;;5085081;28;20203;-80
2024/01/30 09:05:35;;;;;;;7.00;3.17;;;6.50;71.30;;;;;;5087648;28;20554;-80
2024/01/30 09:08:02;;;;;;;10.90;4.50;;;7.30;62.50;;;;;;5087885;28;20208;-82
2024/01/30 09:10:32;;;;;;;5.85;3.40;;;8.10;49.80;;;;;;5086025;28;20547;-82
2024/01/30 09:12:58;;;;;;;8.45;4.07;;;8.90;44.30;;;;;;5086976;28;20241;-82
2024/01/30 09:15:25;;;;;;;8.05;3.80;;;9.80;34.10;;;;;;5085515;28;20198;-83
2024/01/30 09:17:52;;;;;;;5.75;3.75;;;10.40;29.00;;;;;;5076676;28;20197;-81
2024/01/30 09:20:20;;;;;;;8.73;3.90;;;10.80;27.40;;;;;;5089196;28;20560;-79
2024/01/30 09:22:49;;;;;;;6.97;4.15;;;11.70;23.60;;;;;;5084552;28;20212;-80
2024/01/30 09:25:16;;;;;;;9.45;4.30;;;12.60;20.90;;;;;;5087908;28;20201;-80
2024/01/30 09:27:44;;;;;;;7.35;4.00;;;13.30;20.90;;;;;;5085911;28;20208;-81
2024/01/30 09:30:12;;;;;;;5.63;3.95;;;13.60;19.80;;;;;;5078307;28;20195;-80
2024/01/30 09:32:40;;;;;;;9.07;4.70;;;13.90;19.30;;;;;;5086063;28;20220;-79
2024/01/30 09:35:08;;;;;;;6.78;4.32;;;14.20;18.80;;;;;;5080741;28;20204;-79
2024/01/30 09:37:35;;;;;;;7.28;4.18;;;14.30;18.90;;;;;;5083091;28;20195;-76
2024/01/30 09:40:02;;;;;;;8.63;4.40;;;15.50;15.40;;;;;;5084998;28;20201;-80
2024/01/30 09:42:34;;;;;;;6.95;4.40;;;16.70;10.60;;;;;;5084951;28;20211;-80
2024/01/30 09:45:04;;;;;;;7.40;4.32;;;17.80;9.50;;;;;;5082522;28;20197;-78
2024/01/30 09:47:33;;;;;;;7.30;4.13;;;17.50;10.40;;;;;;5080274;28;20801;-78
2024/01/30 09:50:02;;;;;;;8.90;4.57;;;17.30;10.20;;;;;;5080832;28;20574;-78
2024/01/30 09:52:29;;;;;;;6.03;4.05;;;17.80;9.50;;;;;;5085868;28;20220;-78
2024/01/30 09:54:56;;;;;;;8.00;4.68;;;17.90;9.60;;;;;;5083060;28;20207;-79
2024/01/30 09:57:23;;;;;;;5.82;4.65;;;18.60;8.40;;;;;;5086904;28;20208;-80
2024/01/30 09:59:51;;;;;;;6.10;4.00;;;18.60;6.90;;;;;;5087139;28;20216;-78
2024/01/30 10:02:20;;;;;;;11.38;3.92;;;18.50;7.70;;;;;;5078606;28;20265;-78
2024/01/30 10:04:49;;;;;;;8.75;4.20;;;19.40;4.10;;;;;;5083260;28;20196;-78
2024/01/30 10:07:16;;;;;;;7.00;3.80;;;19.00;4.40;;;;;;5083735;28;20196;-78
2024/01/30 10:09:43;;;;;;;8.13;3.88;;;18.30;5.90;;;;;;5084555;28;20655;-78
2024/01/30 10:12:10;;;;;;;5.57;3.63;;;17.70;4.40;;;;;;5086984;28;20212;-79
2024/01/30 10:14:39;;;;;;;7.97;3.50;;;16.90;5.80;;;;;;5082241;28;20192;-80
2024/01/30 10:17:06;;;;;;;8.88;3.85;;;16.50;6.20;;;;;;5083377;28;20192;-80
2024/01/30 10:19:34;;;;;;;10.00;3.70;;;16.10;7.60;;;;;;5094768;28;20201;-80
2024/01/30 10:22:01;;;;;;;7.40;3.55;;;16.20;8.50;;;;;;5083953;28;20204;-81
2024/01/30 10:24:29;;;;;;;8.18;3.67;;;16.70;5.50;;;;;;5080585;28;20193;-80
2024/01/30 10:26:56;;;;;;;7.88;3.53;;;16.60;7.70;;;;;;5086768;28;20196;-80
2024/01/30 10:29:23;;;;;;;6.47;3.65;;;16.40;8.70;;;;;;5079596;28;20223;-80
2024/01/30 10:31:59;;;;;;;8.65;3.65;;;17.40;7.60;;;;;;5083036;28;20240;-80
2024/01/30 10:34:26;;;;;;;8.18;3.80;;;17.90;6.70;;;;;;5085358;28;20271;-81
2024/01/30 10:37:06;;;;;;;8.88;3.65;;;18.00;7.20;;;;;;5085095;28;20204;-79
2024/01/30 10:39:37;;;;;;;5.70;3.25;;;17.50;8.40;;;;;;5088893;28;20196;-78
2024/01/30 10:42:06;;;;;;;10.77;3.40;;;18.10;5.70;;;;;;5082599;28;20196;-78
2024/01/30 10:44:42;;;;;;;7.68;3.45;;;18.50;3.10;;;;;;5085805;28;20192;-78
2024/01/30 10:47:13;;;;;;;11.25;3.50;;;17.60;5.90;;;;;;5080002;28;20198;-75
2024/01/30 10:49:42;;;;;;;9.15;3.80;;;16.50;8.70;;;;;;5081019;28;20900;-78
2024/01/30 10:52:11;;;;;;;7.18;3.65;;;15.80;8.20;;;;;;5083866;28;20212;-77
2024/01/30 10:54:40;;;;;;;11.27;4.70;;;15.40;8.00;;;;;;5085742;28;20719;-77
2024/01/30 10:57:11;;;;;;;12.38;4.00;;;15.30;7.90;;;;;;5082807;28;20227;-77
2024/01/30 10:59:38;;;;;;;15.43;3.70;;;15.00;7.70;;;;;;5081062;28;20216;-80
2024/01/30 11:02:06;;;;;;;7.30;3.30;;;15.10;7.80;;;;;;5085473;28;20200;-80
2024/01/30 11:04:37;;;;;;;10.60;4.25;;;15.50;8.10;;;;;;5081120;28;20197;-80
2024/01/30 11:07:16;;;;;;;4.60;2.15;;;15.40;8.00;;;;;;5079388;28;20231;-77
2024/01/30 11:09:50;;;;;;;4.60;2.30;;;15.00;7.70;;;;;;5079394;28;20227;-77
2024/01/30 11:12:17;;;;;;;5.13;2.45;;;14.80;7.60;;;;;;5082991;28;20249;-78
2024/01/30 11:14:44;;;;;;;4.40;2.40;;;15.20;7.90;;;;;;5080482;28;20200;-77
2024/01/30 11:17:13;;;;;;;2.97;2.15;;;15.50;8.10;;;;;;5081630;28;20213;-78
2024/01/30 11:19:39;;;;;;;4.18;2.40;;;15.80;6.60;;;;;;5079559;28;20218;-79
2024/01/30 11:22:08;;;;;;;5.13;2.58;;;15.70;8.20;;;;;;5086465;28;20197;-78
2024/01/30 11:24:41;;;;;;;4.75;2.40;;;15.10;6.80;;;;;;5080122;28;20197;-78
2024/01/30 11:27:10;;;;;;;5.20;2.80;;;14.70;7.60;;;;;;5083967;28;20220;-82
2024/01/30 11:29:37;;;;;;;4.55;2.55;;;14.40;9.30;;;;;;5082619;28;20196;-81
2024/01/30 11:32:04;;;;;;;6.88;2.70;;;14.10;7.10;;;;;;5084639;28;20304;-81
2024/01/30 11:34:34;;;;;;;8.27;2.30;;;14.30;7.30;;;;;;5082709;28;20649;-79
2024/01/30 11:37:04;;;;;;;5.25;2.25;;;14.40;7.30;;;;;;5084577;28;20204;-80
2024/01/30 11:39:31;;;;;;;5.70;2.60;;;14.30;7.30;;;;;;5078597;28;20204;-82
2024/01/30 11:42:00;;;;;;;4.28;2.40;;;14.20;7.20;;;;;;5081460;28;20245;-82
2024/01/30 11:44:27;;;;;;;3.25;2.30;;;13.90;8.10;;;;;;5084219;28;20597;-83
2024/01/30 11:46:54;;;;;;;7.18;2.60;;;13.60;7.80;;;;;;5082394;28;20203;-83
2024/01/30 11:49:20;;;;;;;6.60;2.42;;;13.50;8.70;;;;;;5066075;28;20197;-83
2024/01/30 11:51:48;;;;;;;8.45;2.70;;;13.50;8.30;;;;;;5084596;28;20204;-83
2024/01/30 11:54:16;;;;;;;9.05;3.22;;;13.60;8.40;;;;;;5079786;28;20197;-82
2024/01/30 11:56:43;;;;;;;5.65;2.92;;;13.60;9.60;;;;;;5083725;28;20277;-82
2024/01/30 11:59:12;;;;;;;8.48;2.80;;;13.50;8.60;;;;;;5085233;28;20652;-83
2024/01/30 12:01:39;;;;;;;4.65;2.85;;;13.50;7.80;;;;;;5082150;28;20656;-82
2024/01/30 12:04:08;;;;;;;5.75;2.60;;;13.40;9.00;;;;;;5085543;28;20201;-83
2024/01/30 12:06:35;;;;;;;5.60;2.42;;;13.40;8.50;;;;;;5082962;28;20666;-82
2024/01/30 12:09:04;;;;;;;5.65;2.30;;;13.50;7.90;;;;;;5083816;28;20605;-86
2024/01/30 12:11:31;;;;;;;2.10;1.90;;;13.50;8.10;;;;;;5077068;28;20193;-83
2024/01/30 12:13:58;;;;;;;6.25;2.17;;;13.50;6.80;;;;;;5081440;28;20927;-81
2024/01/30 12:16:26;;;;;;;7.05;2.30;;;13.50;7.30;;;;;;5083297;28;20200;-81
2024/01/30 12:19:01;;;;;;;6.40;2.10;;;13.50;8.40;;;;;;5085649;28;20203;-82
2024/01/30 12:21:27;;;;;;;7.20;2.30;;;13.70;8.20;;;;;;5084084;28;20192;-82
2024/01/30 12:23:55;;;;;;;5.72;2.58;;;13.80;7.70;;;;;;5076208;28;20212;-82
2024/01/30 12:26:21;;;;;;;3.55;2.30;;;14.10;7.10;;;;;;5081557;28;20541;-83
2024/01/30 12:28:50;;;;;;;5.10;2.30;;;14.10;7.10;;;;;;5082816;28;20200;-82
2024/01/30 12:31:17;;;;;;;7.22;2.10;;;14.20;7.20;;;;;;5078977;28;20200;-83
2024/01/30 12:33:45;;;;;;;5.25;2.25;;;14.10;7.10;;;;;;5069165;28;20766;-82
2024/01/30 12:36:12;;;;;;;3.63;2.40;;;14.20;7.20;;;;;;5085383;28;20199;-83
2024/01/30 12:38:39;;;;;;;2.47;1.98;;;14.20;7.30;;;;;;5080638;28;20565;-83
2024/01/30 12:41:09;;;;;;;3.50;2.05;;;14.10;7.10;;;;;;5082694;28;20200;-84
2024/01/30 12:43:36;;;;;;;2.80;1.80;;;13.90;7.00;;;;;;5088486;28;20201;-82
2024/01/30 12:46:04;;;;;;;2.92;2.10;;;13.80;7.00;;;;;;5084679;28;20201;-83
2024/01/30 12:48:30;;;;;;;3.65;2.08;;;13.70;7.00;;;;;;5085510;28;20220;-83
2024/01/30 12:51:00;;;;;;;3.60;2.33;;;13.70;6.90;;;;;;5083270;28;20193;-82
2024/01/30 12:53:27;;;;;;;4.18;2.35;;;13.70;6.90;;;;;;5085251;28;20221;-82
2024/01/30 12:55:54;;;;;;;4.97;2.10;;;13.60;6.80;;;;;;5088421;28;20220;-84
2024/01/30 12:58:21;;;;;;;4.53;2.20;;;13.60;6.80;;;;;;5086734;28;20212;-83
2024/01/30 13:00:48;;;;;;;3.05;2.10;;;13.60;6.80;;;;;;5090769;28;20201;-83
2024/01/30 13:03:15;;;;;;;4.78;2.50;;;13.60;6.80;;;;;;5084938;28;20235;-81